Time;durP1;ratioP1;P1;durP2;ratioP2;P2;SDS_P1;SDS_P2;PMS_P1;PMS_P2;Temp;Humidity;BMP_temperature;BMP_pressure;BME280_temperature;BME280_humidity;BME280_pressure;Samples;Min_cycle;Max_cycle;Signal;HPM_P1;HPM_P2
2022/08/30 00:03:00;;;;;;;;;;;;;;;24.66;nan;99775.97;5044619;28;19963;-78
2022/08/30 00:05:26;;;;;;;;;;;;;;;24.69;nan;99772.78;5044797;28;19920;-78
2022/08/30 00:07:52;;;;;;;;;;;;;;;24.72;nan;99764.25;5041337;28;19927;-78
2022/08/30 00:10:17;;;;;;;;;;;;;;;24.74;nan;99766.72;5044559;28;19916;-79
2022/08/30 00:12:43;;;;;;;;;;;;;;;24.67;nan;99766.81;5047118;28;20003;-78
2022/08/30 00:15:09;;;;;;;;;;;;;;;24.56;nan;99764.06;5046816;28;19963;-79
2022/08/30 00:17:35;;;;;;;;;;;;;;;24.53;nan;99776.13;5047973;28;19917;-78
2022/08/30 00:20:00;;;;;;;;;;;;;;;24.48;nan;99770.59;5051088;28;20012;-79
2022/08/30 00:22:26;;;;;;;;;;;;;;;24.43;nan;99770.47;5040104;28;19932;-78
2022/08/30 00:24:51;;;;;;;;;;;;;;;24.42;nan;99776.91;5049646;28;20031;-79
2022/08/30 00:27:17;;;;;;;;;;;;;;;24.42;nan;99779.59;5045636;28;19962;-77
2022/08/30 00:29:43;;;;;;;;;;;;;;;24.38;nan;99787.34;5047296;28;20020;-79
2022/08/30 00:32:08;;;;;;;;;;;;;;;24.23;nan;99791.44;5043180;28;19924;-79
2022/08/30 00:34:33;;;;;;;;;;;;;;;24.03;nan;99787.06;5047875;28;19913;-79
2022/08/30 00:36:59;;;;;;;;;;;;;;;23.68;nan;99794.06;5043044;28;19916;-77
2022/08/30 00:39:25;;;;;;;;;;;;;;;23.67;nan;99793.25;5054942;28;19928;-79
2022/08/30 00:41:50;;;;;;;;;;;;;;;23.49;nan;99789.69;5046370;28;19924;-78
2022/08/30 00:44:16;;;;;;;;;;;;;;;23.52;nan;99795.47;5043900;28;19916;-79
2022/08/30 00:46:42;;;;;;;;;;;;;;;23.61;nan;99793.31;5042663;28;20085;-78
2022/08/30 00:49:09;;;;;;;;;;;;;;;23.62;nan;99784.19;5052220;28;19923;-76
2022/08/30 00:51:35;;;;;;;;;;;;;;;23.60;nan;99786.28;5043244;28;20057;-76
2022/08/30 00:54:01;;;;;;;;;;;;;;;23.62;nan;99776.13;5047788;28;19928;-79
2022/08/30 00:56:27;;;;;;;;;;;;;;;23.61;nan;99777.97;5036741;28;20400;-78
2022/08/30 00:58:56;;;;;;;;;;;;;;;23.59;nan;99773.84;5044611;28;19916;-78
2022/08/30 01:01:22;;;;;;;;;;;;;;;23.57;nan;99781.31;5039609;28;19924;-77
2022/08/30 01:03:48;;;;;;;;;;;;;;;23.58;nan;99772.19;5044724;28;19917;-78
2022/08/30 01:06:16;;;;;;;;;;;;;;;23.54;nan;99777.22;5043173;28;20216;-77
2022/08/30 01:08:42;;;;;;;;;;;;;;;23.51;nan;99766.88;5034786;28;19917;-78
2022/08/30 01:11:08;;;;;;;;;;;;;;;23.53;nan;99769.34;5041726;28;20301;-79
2022/08/30 01:13:34;;;;;;;;;;;;;;;23.51;nan;99755.28;5041296;28;20043;-79
2022/08/30 01:16:00;;;;;;;;;;;;;;;23.54;nan;99754.84;5050436;28;19916;-78
2022/08/30 01:18:26;;;;;;;;;;;;;;;23.55;nan;99751.94;5039946;28;19983;-77
2022/08/30 01:20:54;;;;;;;;;;;;;;;23.56;nan;99752.75;5049065;28;19925;-79
2022/08/30 01:23:20;;;;;;;;;;;;;;;23.56;nan;99758.16;5041816;28;20013;-78
2022/08/30 01:25:47;;;;;;;;;;;;;;;23.55;nan;99740.34;5027757;28;19948;-79
2022/08/30 01:28:14;;;;;;;;;;;;;;;23.51;nan;99739.09;5039821;28;19924;-78
2022/08/30 01:30:41;;;;;;;;;;;;;;;23.55;nan;99740.34;5050667;28;19924;-76
2022/08/30 01:33:07;;;;;;;;;;;;;;;23.54;nan;99739.50;5047283;28;19916;-77
2022/08/30 01:35:52;;;;;;;;;;;;;;;23.58;nan;99735.31;5048800;28;19917;-77
2022/08/30 01:38:19;;;;;;;;;;;;;;;23.58;nan;99746.09;5054682;28;19917;-77
2022/08/30 01:40:45;;;;;;;;;;;;;;;23.59;nan;99741.53;5057760;28;20119;-78
2022/08/30 01:43:12;;;;;;;;;;;;;;;23.64;nan;99744.38;5036079;28;19917;-78
2022/08/30 01:45:37;;;;;;;;;;;;;;;23.63;nan;99748.09;5038838;28;19924;-78
2022/08/30 01:48:03;;;;;;;;;;;;;;;23.57;nan;99743.59;5052787;28;19916;-78
2022/08/30 01:50:28;;;;;;;;;;;;;;;23.55;nan;99734.94;5051888;28;19916;-78
2022/08/30 01:52:54;;;;;;;;;;;;;;;23.57;nan;99744.44;5049942;28;20000;-77
2022/08/30 01:55:19;;;;;;;;;;;;;;;23.58;nan;99750.66;5059031;28;19955;-77
2022/08/30 01:57:45;;;;;;;;;;;;;;;23.48;nan;99744.94;5055390;28;19921;-77
2022/08/30 02:00:11;;;;;;;;;;;;;;;23.48;nan;99742.25;5046088;28;19916;-78
2022/08/30 02:02:39;;;;;;;;;;;;;;;23.36;nan;99744.00;5054403;28;19962;-77
2022/08/30 02:05:05;;;;;;;;;;;;;;;23.33;nan;99747.16;5035845;28;19924;-74
2022/08/30 02:07:31;;;;;;;;;;;;;;;23.28;nan;99745.91;5056758;28;19916;-77
2022/08/30 02:09:56;;;;;;;;;;;;;;;23.16;nan;99753.06;5049730;28;19921;-77
2022/08/30 02:12:21;;;;;;;;;;;;;;;22.72;nan;99750.50;5051469;28;20002;-77
2022/08/30 02:14:47;;;;;;;;;;;;;;;22.77;nan;99758.72;5056522;28;20000;-78
2022/08/30 02:17:13;;;;;;;;;;;;;;;22.77;nan;99758.72;5048181;28;19916;-78
2022/08/30 02:19:39;;;;;;;;;;;;;;;22.50;nan;99757.22;5050750;28;19958;-77
2022/08/30 02:22:05;;;;;;;;;;;;;;;22.31;nan;99767.84;5050585;28;19916;-78
2022/08/30 02:24:31;;;;;;;;;;;;;;;22.32;nan;99765.97;5054783;28;20377;-79
2022/08/30 02:26:56;;;;;;;;;;;;;;;22.41;nan;99754.75;5055068;28;19916;-80
2022/08/30 02:29:23;;;;;;;;;;;;;;;22.44;nan;99759.69;5053326;28;19917;-78
2022/08/30 02:31:48;;;;;;;;;;;;;;;22.48;nan;99753.91;5060846;28;20416;-77
2022/08/30 02:34:16;;;;;;;;;;;;;;;22.49;nan;99750.19;5048637;28;20035;-78
2022/08/30 02:36:41;;;;;;;;;;;;;;;22.45;nan;99760.53;5062489;28;19998;-78
2022/08/30 02:39:07;;;;;;;;;;;;;;;22.50;nan;99757.22;5056563;28;19924;-78
2022/08/30 02:41:33;;;;;;;;;;;;;;;22.43;nan;99768.00;5060314;28;19917;-78
2022/08/30 02:43:59;;;;;;;;;;;;;;;22.22;nan;99763.72;5054737;28;19923;-77
2022/08/30 02:46:25;;;;;;;;;;;;;;;22.24;nan;99763.53;5051628;28;20342;-78
2022/08/30 02:48:51;;;;;;;;;;;;;;;22.19;nan;99766.84;5049697;28;20400;-77
2022/08/30 02:51:16;;;;;;;;;;;;;;;22.12;nan;99770.59;5058661;28;19963;-78
2022/08/30 02:53:43;;;;;;;;;;;;;;;22.21;nan;99772.81;5061017;28;19927;-78
2022/08/30 02:56:09;;;;;;;;;;;;;;;22.29;nan;99783.34;5058770;28;20684;-86
2022/08/30 02:58:35;;;;;;;;;;;;;;;22.40;nan;99780.00;5060082;28;19978;-78
2022/08/30 03:01:01;;;;;;;;;;;;;;;22.37;nan;99774.22;5050048;28;19920;-78
2022/08/30 03:03:26;;;;;;;;;;;;;;;22.42;nan;99783.31;5064348;28;19935;-78
2022/08/30 03:05:52;;;;;;;;;;;;;;;22.40;nan;99784.53;5047041;28;19932;-78
2022/08/30 03:08:17;;;;;;;;;;;;;;;22.35;nan;99782.50;5063683;28;20110;-79
2022/08/30 03:10:42;;;;;;;;;;;;;;;22.39;nan;99783.72;5059001;28;20063;-80
2022/08/30 03:13:08;;;;;;;;;;;;;;;22.38;nan;99779.38;5060671;28;19943;-79
2022/08/30 03:15:34;;;;;;;;;;;;;;;22.31;nan;99777.78;5049045;28;19917;-79
2022/08/30 03:18:00;;;;;;;;;;;;;;;22.34;nan;99780.84;5054788;28;20395;-80
2022/08/30 03:20:25;;;;;;;;;;;;;;;22.32;nan;99777.56;5054123;28;19920;-79
2022/08/30 03:22:50;;;;;;;;;;;;;;;22.22;nan;99782.53;5047986;28;19921;-80
2022/08/30 03:25:16;;;;;;;;;;;;;;;22.24;nan;99779.66;5055741;28;19916;-78
2022/08/30 03:27:42;;;;;;;;;;;;;;;22.28;nan;99781.69;5037285;28;20361;-79
2022/08/30 03:30:08;;;;;;;;;;;;;;;22.26;nan;99778.41;5059424;28;19920;-80
2022/08/30 03:32:33;;;;;;;;;;;;;;;22.31;nan;99783.97;5055884;28;19917;-79
2022/08/30 03:34:59;;;;;;;;;;;;;;;22.36;nan;99784.16;5058258;28;19920;-79
2022/08/30 03:37:26;;;;;;;;;;;;;;;22.46;nan;99781.00;5036080;28;19921;-80
2022/08/30 03:39:52;;;;;;;;;;;;;;;22.46;nan;99781.81;5055370;28;19920;-79
2022/08/30 03:42:18;;;;;;;;;;;;;;;22.57;nan;99774.94;5056704;28;19932;-79
2022/08/30 03:44:43;;;;;;;;;;;;;;;22.61;nan;99773.50;5058311;28;20003;-79
2022/08/30 03:47:08;;;;;;;;;;;;;;;22.62;nan;99777.00;5046514;28;20199;-81
2022/08/30 03:49:34;;;;;;;;;;;;;;;22.67;nan;99769.13;5058014;28;19989;-80
2022/08/30 03:52:00;;;;;;;;;;;;;;;22.69;nan;99777.78;5053332;28;19924;-80
2022/08/30 03:54:25;;;;;;;;;;;;;;;22.69;nan;99777.78;5067209;28;19924;-81
2022/08/30 03:56:51;;;;;;;;;;;;;;;22.61;nan;99775.34;5048776;28;19927;-81
2022/08/30 03:59:16;;;;;;;;;;;;;;;22.65;nan;99771.19;5039157;28;20009;-80
2022/08/30 04:01:44;;;;;;;;;;;;;;;22.61;nan;99776.19;5038081;28;19912;-80
2022/08/30 04:04:10;;;;;;;;;;;;;;;22.55;nan;99776.22;5057907;28;19917;-80
2022/08/30 04:06:36;;;;;;;;;;;;;;;22.50;nan;99779.56;5059040;28;20328;-79
2022/08/30 04:09:01;;;;;;;;;;;;;;;22.46;nan;99773.75;5059028;28;19920;-80
2022/08/30 04:11:27;;;;;;;;;;;;;;;22.48;nan;99787.00;5053302;28;19916;-79
2022/08/30 04:13:54;;;;;;;;;;;;;;;22.46;nan;99773.75;5061380;28;20013;-79
2022/08/30 04:16:20;;;;;;;;;;;;;;;22.48;nan;99775.41;5034392;28;20299;-79
2022/08/30 04:18:45;;;;;;;;;;;;;;;22.51;nan;99772.28;5052213;28;19925;-78
2022/08/30 04:21:10;;;;;;;;;;;;;;;22.44;nan;99780.41;5057868;28;19955;-79
2022/08/30 04:23:36;;;;;;;;;;;;;;;22.42;nan;99780.63;5036510;28;19917;-79
2022/08/30 04:26:01;;;;;;;;;;;;;;;22.43;nan;99779.59;5037373;28;19929;-80
2022/08/30 04:28:27;;;;;;;;;;;;;;;22.42;nan;99779.78;5051738;28;20011;-81
2022/08/30 04:30:52;;;;;;;;;;;;;;;22.43;nan;99792.19;5057880;28;19925;-79
2022/08/30 04:33:18;;;;;;;;;;;;;;;22.38;nan;99792.81;5054386;28;19984;-80
2022/08/30 04:35:44;;;;;;;;;;;;;;;22.36;nan;99794.09;5075462;28;19923;-81
2022/08/30 04:38:12;;;;;;;;;;;;;;;22.33;nan;99795.31;5073451;28;19956;-81
2022/08/30 04:40:39;;;;;;;;;;;;;;;22.33;nan;99789.94;5064793;28;19935;-80
2022/08/30 04:43:05;;;;;;;;;;;;;;;22.33;nan;99803.38;5067258;28;19916;-80
2022/08/30 04:45:30;;;;;;;;;;;;;;;22.30;nan;99806.50;5076666;28;19943;-79
2022/08/30 04:47:55;;;;;;;;;;;;;;;22.30;nan;99806.50;5061980;28;19921;-78
2022/08/30 04:50:21;;;;;;;;;;;;;;;22.28;nan;99811.25;5077239;28;19924;-79
2022/08/30 04:52:46;;;;;;;;;;;;;;;22.30;nan;99811.88;5073158;28;20373;-79
2022/08/30 04:55:12;;;;;;;;;;;;;;;22.33;nan;99816.00;5065062;28;19964;-79
2022/08/30 04:57:39;;;;;;;;;;;;;;;22.31;nan;99824.31;5053338;28;19917;-76
2022/08/30 05:00:09;;;;;;;;;;;;;;;22.31;nan;99818.91;5028529;28;19999;-75
2022/08/30 05:02:35;;;;;;;;;;;;;;;22.33;nan;99822.19;5060039;28;20423;-76
2022/08/30 05:07:45;;;;;;;;;;;;;;;22.40;nan;99828.38;5057439;28;19982;-79
2022/08/30 05:10:10;;;;;;;;;;;;;;;22.45;nan;99831.25;5047975;28;20006;-80
2022/08/30 05:12:36;;;;;;;;;;;;;;;22.41;nan;99835.41;5047406;28;19916;-79
2022/08/30 05:15:02;;;;;;;;;;;;;;;22.37;nan;99842.28;5056136;28;19916;-80
2022/08/30 05:17:27;;;;;;;;;;;;;;;22.30;nan;99844.16;5058729;28;19924;-81
2022/08/30 05:19:53;;;;;;;;;;;;;;;22.21;nan;99848.09;5055704;28;19920;-77
2022/08/30 05:22:18;;;;;;;;;;;;;;;22.00;nan;99856.41;5055203;28;19970;-77
2022/08/30 05:24:43;;;;;;;;;;;;;;;21.90;nan;99854.13;5051728;28;19983;-77
2022/08/30 05:27:09;;;;;;;;;;;;;;;21.58;nan;99854.97;5049940;28;19963;-77
2022/08/30 05:29:34;;;;;;;;;;;;;;;21.46;nan;99862.81;5052808;28;20018;-79
2022/08/30 05:32:00;;;;;;;;;;;;;;;21.31;nan;99867.56;5058430;28;19923;-79
2022/08/30 05:34:25;;;;;;;;;;;;;;;21.15;nan;99865.22;5060294;28;19916;-75
2022/08/30 05:36:52;;;;;;;;;;;;;;;21.25;nan;99871.06;5045520;28;19925;-78
2022/08/30 05:39:17;;;;;;;;;;;;;;;21.34;nan;99872.50;5058107;28;19939;-80
2022/08/30 05:41:43;;;;;;;;;;;;;;;21.39;nan;99882.63;5046563;28;20372;-78
2022/08/30 05:44:09;;;;;;;;;;;;;;;21.47;nan;99880.56;5057730;28;20023;-79
2022/08/30 05:46:34;;;;;;;;;;;;;;;21.67;nan;99885.13;5050464;28;19917;-77
2022/08/30 05:49:00;;;;;;;;;;;;;;;21.77;nan;99880.16;5051861;28;19927;-77
2022/08/30 05:51:29;;;;;;;;;;;;;;;21.65;nan;99880.78;5052754;28;19921;-78
2022/08/30 05:53:55;;;;;;;;;;;;;;;21.67;nan;99885.13;5056274;28;20269;-77
2022/08/30 05:56:23;;;;;;;;;;;;;;;21.71;nan;99881.00;5052642;28;19923;-78
2022/08/30 05:58:49;;;;;;;;;;;;;;;21.77;nan;99877.47;5055257;28;19960;-77
2022/08/30 06:01:22;;;;;;;;;;;;;;;21.80;nan;99877.06;5049268;28;19959;-77
2022/08/30 06:03:49;;;;;;;;;;;;;;;21.86;nan;99884.28;5055283;28;19917;-78
2022/08/30 06:06:15;;;;;;;;;;;;;;;21.99;nan;99878.94;5058209;28;20405;-76
2022/08/30 06:08:41;;;;;;;;;;;;;;;21.99;nan;99885.16;5053853;28;19975;-76
2022/08/30 06:11:06;;;;;;;;;;;;;;;22.04;nan;99879.13;5060306;28;19916;-76
2022/08/30 06:13:32;;;;;;;;;;;;;;;22.02;nan;99876.69;5053160;28;20046;-76
2022/08/30 06:15:57;;;;;;;;;;;;;;;22.16;nan;99877.47;5055176;28;19924;-76
2022/08/30 06:18:23;;;;;;;;;;;;;;;22.29;nan;99872.06;5052017;28;20443;-78
2022/08/30 06:20:50;;;;;;;;;;;;;;;22.34;nan;99883.00;5068437;28;20395;-77
2022/08/30 06:23:16;;;;;;;;;;;;;;;22.76;nan;99880.84;5053303;28;20099;-77
2022/08/30 06:25:42;;;;;;;;;;;;;;;22.92;nan;99880.34;5067814;28;20387;-76
2022/08/30 06:28:08;;;;;;;;;;;;;;;22.89;nan;99874.56;5057188;28;19951;-77
2022/08/30 06:30:33;;;;;;;;;;;;;;;22.91;nan;99870.63;5063834;28;19916;-77
2022/08/30 06:32:59;;;;;;;;;;;;;;;23.01;nan;99868.28;5053692;28;19948;-76
2022/08/30 06:35:26;;;;;;;;;;;;;;;23.12;nan;99862.22;5051479;28;19916;-77
2022/08/30 06:37:51;;;;;;;;;;;;;;;23.15;nan;99861.78;5046795;28;20012;-78
2022/08/30 06:40:19;;;;;;;;;;;;;;;23.32;nan;99869.34;5031268;28;19947;-79
2022/08/30 06:42:44;;;;;;;;;;;;;;;23.32;nan;99875.56;5032380;28;20306;-78
2022/08/30 06:45:10;;;;;;;;;;;;;;;23.28;nan;99875.16;5051470;28;19923;-76
2022/08/30 06:48:01;;;;;;;;;;;;;;;23.30;nan;99871.44;5047762;28;20027;-78
2022/08/30 06:50:26;;;;;;;;;;;;;;;23.36;nan;99870.56;5053858;28;19920;-76
2022/08/30 06:52:52;;;;;;;;;;;;;;;23.38;nan;99863.09;5047703;28;20009;-78
2022/08/30 06:55:18;;;;;;;;;;;;;;;23.38;nan;99871.19;5036218;28;19913;-78
2022/08/30 06:57:44;;;;;;;;;;;;;;;23.52;nan;99870.88;5045186;28;19924;-78
2022/08/30 07:00:12;;;;;;;;;;;;;;;23.57;nan;99872.91;5047536;28;20355;-78
2022/08/30 07:02:38;;;;;;;;;;;;;;;23.61;nan;99883.03;5045906;28;20296;-77
2022/08/30 07:05:04;;;;;;;;;;;;;;;23.65;nan;99880.72;5045811;28;19916;-78
2022/08/30 07:07:29;;;;;;;;;;;;;;;23.70;nan;99880.88;5041626;28;19920;-79
2022/08/30 07:09:55;;;;;;;;;;;;;;;23.72;nan;99881.50;5048746;28;20014;-79
2022/08/30 07:12:21;;;;;;;;;;;;;;;23.73;nan;99876.94;5054158;28;19917;-77
2022/08/30 07:14:46;;;;;;;;;;;;;;;23.77;nan;99876.28;5044830;28;20364;-76
2022/08/30 07:19:56;;;;;;;;;;;;;;;23.86;nan;99872.25;5046799;28;19920;-81
2022/08/30 07:22:21;;;;;;;;;;;;;;;23.83;nan;99878.09;5051607;28;19917;-82
2022/08/30 07:24:47;;;;;;;;;;;;;;;23.83;nan;99878.09;5043830;28;19917;-80
2022/08/30 07:27:13;;;;;;;;;;;;;;;23.83;nan;99883.47;5055497;28;19964;-84
2022/08/30 07:29:38;;;;;;;;;;;;;;;23.92;nan;99876.75;5044931;28;19920;-80
2022/08/30 07:32:04;;;;;;;;;;;;;;;23.98;nan;99872.34;5042801;28;19952;-78
2022/08/30 07:34:29;;;;;;;;;;;;;;;24.03;nan;99867.94;5046038;28;19963;-82
2022/08/30 07:36:55;;;;;;;;;;;;;;;24.12;nan;99875.75;5053389;28;20015;-80
2022/08/30 07:39:20;;;;;;;;;;;;;;;24.22;nan;99886.88;5072854;28;20046;-76
2022/08/30 07:41:47;;;;;;;;;;;;;;;24.30;nan;99883.88;5072477;28;19963;-77
2022/08/30 07:44:13;;;;;;;;;;;;;;;24.41;nan;99892.06;5073382;28;19923;-77
2022/08/30 07:46:40;;;;;;;;;;;;;;;24.46;nan;99891.38;5071430;28;20005;-77
2022/08/30 07:49:06;;;;;;;;;;;;;;;24.43;nan;99891.84;5069948;28;19947;-76
2022/08/30 07:51:32;;;;;;;;;;;;;;;24.44;nan;99897.03;5054910;28;19916;-77
2022/08/30 07:53:59;;;;;;;;;;;;;;;24.44;nan;99897.03;5069900;28;19920;-79
2022/08/30 07:56:25;;;;;;;;;;;;;;;24.51;nan;99896.91;5073596;28;20299;-80
2022/08/30 07:58:51;;;;;;;;;;;;;;;24.63;nan;99900.50;5072891;28;20443;-76
2022/08/30 08:01:17;;;;;;;;;;;;;;;24.69;nan;99888.81;5071734;28;19969;-77
2022/08/30 08:03:45;;;;;;;;;;;;;;;24.76;nan;99894.13;5073678;28;19916;-77
2022/08/30 08:06:13;;;;;;;;;;;;;;;24.77;nan;99880.44;5072310;28;20334;-76
2022/08/30 08:08:39;;;;;;;;;;;;;;;24.80;nan;99889.94;5071158;28;19991;-76
2022/08/30 08:11:09;;;;;;;;;;;;;;;24.85;nan;99884.69;5070413;28;19985;-76
2022/08/30 08:13:34;;;;;;;;;;;;;;;24.94;nan;99885.22;5052705;28;20288;-77
2022/08/30 08:16:00;;;;;;;;;;;;;;;24.95;nan;99878.78;5043517;28;19917;-76
2022/08/30 08:18:25;;;;;;;;;;;;;;;24.98;nan;99891.81;5071708;28;19927;-78
2022/08/30 08:20:51;;;;;;;;;;;;;;;24.96;nan;99899.34;5071626;28;19970;-77
2022/08/30 08:23:16;;;;;;;;;;;;;;;24.95;nan;99900.38;5070196;28;19916;-78
2022/08/30 08:25:42;;;;;;;;;;;;;;;24.93;nan;99902.47;5071090;28;19943;-77
2022/08/30 08:28:08;;;;;;;;;;;;;;;24.95;nan;99903.06;5071471;28;19919;-76
2022/08/30 08:30:35;;;;;;;;;;;;;;;24.92;nan;99908.94;5070311;28;19997;-79
2022/08/30 08:33:00;;;;;;;;;;;;;;;24.87;nan;99907.69;5067537;28;19920;-77
2022/08/30 08:35:26;;;;;;;;;;;;;;;24.88;nan;99913.91;5065224;28;20003;-78
2022/08/30 08:37:52;;;;;;;;;;;;;;;24.87;nan;99918.50;5046017;28;19921;-78
2022/08/30 08:40:18;;;;;;;;;;;;;;;24.90;nan;99919.13;5044654;28;19920;-78
2022/08/30 08:43:09;;;;;;;;;;;;;;;24.91;nan;99918.09;5040339;28;19944;-79
2022/08/30 08:45:41;;;;;;;;;;;;;;;24.91;nan;99912.69;5038046;28;19917;-79
2022/08/30 08:48:19;;;;;;;;;;;;;;;24.91;nan;99912.69;5045466;28;19924;-77
2022/08/30 08:53:33;;;;;;;;;;;;;;;24.90;nan;99913.72;5037684;28;19936;-77
2022/08/30 08:53:36;;;;;;;;;;;;;;;24.92;nan;99915.13;5040518;28;19928;-77
2022/08/30 08:56:09;;;;;;;;;;;;;;;24.96;nan;99923.63;5045603;28;19940;-78
2022/08/30 08:58:40;;;;;;;;;;;;;;;24.93;nan;99914.09;5041235;28;19924;-78
2022/08/30 09:01:07;;;;;;;;;;;;;;;24.86;nan;99916.84;5045480;28;19924;-79
2022/08/30 09:03:33;;;;;;;;;;;;;;;24.88;nan;99920.19;5037620;28;19916;-75
2022/08/30 09:06:00;;;;;;;;;;;;;;;24.88;nan;99920.19;5038809;28;19956;-75
2022/08/30 09:08:26;;;;;;;;;;;;;;;24.98;nan;99918.81;5051555;28;20069;-75
2022/08/30 09:10:51;;;;;;;;;;;;;;;25.04;nan;99917.91;5032491;28;19925;-75
2022/08/30 09:13:17;;;;;;;;;;;;;;;25.07;nan;99930.97;5046717;28;19923;-75
2022/08/30 09:15:43;;;;;;;;;;;;;;;25.11;nan;99940.25;5042787;28;19967;-75
2022/08/30 09:18:08;;;;;;;;;;;;;;;25.12;nan;99931.91;5046929;28;19924;-76
2022/08/30 09:20:36;;;;;;;;;;;;;;;25.16;nan;99943.06;5041289;28;20437;-76
2022/08/30 09:23:31;;;;;;;;;;;;;;;25.19;nan;99943.47;5032071;28;20026;-77
2022/08/30 09:25:59;;;;;;;;;;;;;;;25.29;nan;99948.31;5026618;28;19948;-77
2022/08/30 09:28:29;;;;;;;;;;;;;;;25.32;nan;99964.06;5042081;28;19917;-75
2022/08/30 09:31:05;;;;;;;;;;;;;;;25.25;nan;99963.34;5038088;28;19955;-75
2022/08/30 09:33:31;;;;;;;;;;;;;;;25.10;nan;99960.19;5035744;28;19925;-78
2022/08/30 09:36:08;;;;;;;;;;;;;;;25.19;nan;99954.25;5048450;28;19974;-76
2022/08/30 09:38:33;;;;;;;;;;;;;;;25.15;nan;99946.84;5036864;28;19971;-77
2022/08/30 09:41:03;;;;;;;;;;;;;;;25.23;nan;99943.81;5048321;28;19917;-77
2022/08/30 09:43:30;;;;;;;;;;;;;;;25.27;nan;99936.94;5035834;28;20234;-77
2022/08/30 09:45:58;;;;;;;;;;;;;;;25.31;nan;99939.97;5040765;28;19921;-80
2022/08/30 09:48:37;;;;;;;;;;;;;;;25.30;nan;99947.25;5039917;28;20394;-76
2022/08/30 09:51:02;;;;;;;;;;;;;;;25.29;nan;99954.53;5048739;28;19984;-75
2022/08/30 09:53:32;;;;;;;;;;;;;;;25.22;nan;99958.38;5041721;28;19963;-75
2022/08/30 09:56:05;;;;;;;;;;;;;;;25.20;nan;99960.50;5040351;28;19983;-76
2022/08/30 09:58:49;;;;;;;;;;;;;;;25.18;nan;99957.19;5042800;28;19917;-75
2022/08/30 10:01:17;;;;;;;;;;;;;;;25.17;nan;99960.94;5043261;28;19912;-75
2022/08/30 10:03:42;;;;;;;;;;;;;;;25.25;nan;99947.13;5045034;28;19923;-75
2022/08/30 10:06:13;;;;;;;;;;;;;;;25.25;nan;99947.13;5046768;28;19988;-76
2022/08/30 10:08:40;;;;;;;;;;;;;;;25.27;nan;99951.22;5044370;28;19917;-76
2022/08/30 10:11:21;;;;;;;;;;;;;;;25.36;nan;99937.41;5046115;28;20327;-76
2022/08/30 10:13:52;;;;;;;;;;;;;;;25.36;nan;99940.94;5043094;28;19928;-76
2022/08/30 10:16:18;;;;;;;;;;;;;;;25.40;nan;99923.22;5041714;28;19933;-75
2022/08/30 10:18:52;;;;;;;;;;;;;;;25.44;nan;99913.63;5045012;28;19928;-79
2022/08/30 10:21:24;;;;;;;;;;;;;;;25.54;nan;99913.88;5043244;28;20281;-80
2022/08/30 10:24:10;;;;;;;;;;;;;;;25.55;nan;99920.09;5012833;28;19921;-80
2022/08/30 10:26:40;;;;;;;;;;;;;;;25.58;nan;99920.47;5035288;28;20408;-78
2022/08/30 10:29:08;;;;;;;;;;;;;;;25.66;nan;99917.44;5045923;28;20007;-79
2022/08/30 10:31:54;;;;;;;;;;;;;;;25.64;nan;99919.56;5040518;28;19925;-80
2022/08/30 10:34:23;;;;;;;;;;;;;;;25.78;nan;99919.34;5024128;28;19968;-79
2022/08/30 10:36:54;;;;;;;;;;;;;;;25.87;nan;99924.16;5044237;28;19917;-80
2022/08/30 10:39:25;;;;;;;;;;;;;;;25.98;nan;99922.53;5041308;28;19924;-74
2022/08/30 10:42:10;;;;;;;;;;;;;;;26.04;nan;99918.88;5043421;28;19917;-74
2022/08/30 10:44:40;;;;;;;;;;;;;;;26.10;nan;99912.53;4340951;28;10020708;-76
2022/08/30 10:47:13;;;;;;;;;;;;;;;26.09;nan;99913.63;5041013;28;19924;-74
2022/08/30 10:49:42;;;;;;;;;;;;;;;26.09;nan;99911.72;5035463;28;19948;-74
2022/08/30 10:52:11;;;;;;;;;;;;;;;26.05;nan;99905.13;5034855;28;19920;-75
2022/08/30 10:54:39;;;;;;;;;;;;;;;26.07;nan;99896.81;5035848;28;20016;-74
2022/08/30 10:57:05;;;;;;;;;;;;;;;26.08;nan;99898.44;5041314;28;20019;-73
2022/08/30 10:59:31;;;;;;;;;;;;;;;26.00;nan;99896.09;5050267;28;19924;-76
2022/08/30 11:02:11;;;;;;;;;;;;;;;26.02;nan;99899.38;5041701;28;19924;-74
2022/08/30 11:05:01;;;;;;;;;;;;;;;25.96;nan;99894.91;4969783;28;9999747;-74
2022/08/30 11:07:34;;;;;;;;;;;;;;;25.85;nan;99893.03;5051751;28;19916;-72
2022/08/30 11:10:06;;;;;;;;;;;;;;;25.83;nan;99889.72;5044763;28;20293;-74
2022/08/30 11:12:31;;;;;;;;;;;;;;;25.75;nan;99881.97;5046252;28;19917;-74
2022/08/30 11:14:58;;;;;;;;;;;;;;;25.78;nan;99876.94;5042664;28;19916;-72
2022/08/30 11:17:24;;;;;;;;;;;;;;;25.87;nan;99880.91;5046674;28;19923;-73
2022/08/30 11:19:51;;;;;;;;;;;;;;;25.98;nan;99879.25;5035046;28;19922;-73
2022/08/30 11:22:24;;;;;;;;;;;;;;;26.04;nan;99883.72;5048119;28;19920;-73
2022/08/30 11:25:05;;;;;;;;;;;;;;;26.10;nan;99880.09;5041786;28;19925;-74
2022/08/30 11:27:57;;;;;;;;;;;;;;;26.14;nan;99881.28;5041906;28;19927;-74
2022/08/30 11:30:23;;;;;;;;;;;;;;;26.15;nan;99877.53;5048151;28;19925;-75
2022/08/30 11:33:03;;;;;;;;;;;;;;;26.16;nan;99881.84;5042155;28;19927;-75
2022/08/30 11:35:38;;;;;;;;;;;;;;;26.14;nan;99881.28;5045918;28;20369;-75
2022/08/30 11:38:39;;;;;;;;;;;;;;;26.08;nan;99882.22;5045409;28;19924;-76
2022/08/30 11:41:07;;;;;;;;;;;;;;;26.14;nan;99880.47;5050651;28;20479;-74
2022/08/30 11:43:33;;;;;;;;;;;;;;;26.12;nan;99872.56;5039151;28;19917;-74
2022/08/30 11:46:22;;;;;;;;;;;;;;;26.20;nan;99874.94;5042382;28;19917;-75
2022/08/30 11:48:51;;;;;;;;;;;;;;;26.23;nan;99871.78;5041808;28;20003;-75
2022/08/30 11:51:31;;;;;;;;;;;;;;;26.33;nan;99863.06;5024017;28;20357;-73
2022/08/30 11:53:57;;;;;;;;;;;;;;;26.43;nan;99852.47;5046076;28;19921;-74
2022/08/30 11:56:41;;;;;;;;;;;;;;;26.58;nan;99843.81;5041835;28;19963;-75
2022/08/30 11:59:16;;;;;;;;;;;;;;;26.69;nan;99840.25;5042749;28;20408;-74
2022/08/30 12:01:42;;;;;;;;;;;;;;;26.77;nan;99823.63;5043624;28;19917;-74
2022/08/30 12:04:12;;;;;;;;;;;;;;;26.96;nan;99817.00;5041703;28;19962;-74
2022/08/30 12:06:40;;;;;;;;;;;;;;;27.10;nan;99814.78;5043138;28;20016;-75
2022/08/30 12:09:07;;;;;;;;;;;;;;;27.16;nan;99814.63;5046981;28;19967;-75
2022/08/30 12:11:33;;;;;;;;;;;;;;;27.19;nan;99811.44;5047290;28;20434;-75
2022/08/30 12:13:59;;;;;;;;;;;;;;;27.14;nan;99811.38;5042928;28;19917;-74
2022/08/30 12:18:26;;;;;;;;;;;;;;;27.09;nan;99815.88;5039692;28;20329;-76
2022/08/30 12:19:24;;;;;;;;;;;;;;;27.02;nan;99829.56;5040615;28;19960;-76
2022/08/30 12:21:57;;;;;;;;;;;;;;;27.02;nan;99842.28;5040474;28;19974;-75
2022/08/30 12:24:25;;;;;;;;;;;;;;;26.92;nan;99845.59;5043873;28;19917;-76
2022/08/30 12:26:51;;;;;;;;;;;;;;;26.88;nan;99839.03;5047114;28;19956;-76
2022/08/30 12:29:24;;;;;;;;;;;;;;;26.83;nan;99841.63;5044302;28;20445;-74
2022/08/30 12:31:50;;;;;;;;;;;;;;;26.73;nan;99846.84;5024061;28;19971;-73
2022/08/30 12:34:18;;;;;;;;;;;;;;;26.64;nan;99837.44;5042709;28;20376;-74
2022/08/30 12:36:56;;;;;;;;;;;;;;;26.62;nan;99836.88;5045758;28;20372;-73
2022/08/30 12:39:24;;;;;;;;;;;;;;;26.61;nan;99827.94;5042368;28;19924;-76
2022/08/30 12:41:49;;;;;;;;;;;;;;;26.61;nan;99827.94;5048992;28;19921;-74
2022/08/30 12:44:18;;;;;;;;;;;;;;;26.61;nan;99822.53;5042228;28;20277;-74
2022/08/30 12:46:47;;;;;;;;;;;;;;;26.49;nan;99814.44;5040470;28;19917;-73
2022/08/30 12:49:15;;;;;;;;;;;;;;;26.47;nan;99805.72;5043040;28;19952;-74
2022/08/30 12:51:41;;;;;;;;;;;;;;;26.49;nan;99798.22;5040924;28;19928;-73
2022/08/30 12:54:13;;;;;;;;;;;;;;;26.52;nan;99798.78;5039565;28;19977;-74
2022/08/30 12:56:47;;;;;;;;;;;;;;;26.52;nan;99782.53;5044252;28;20265;-74
2022/08/30 12:59:31;;;;;;;;;;;;;;;26.51;nan;99779.00;5025176;28;20292;-74
2022/08/30 13:02:12;;;;;;;;;;;;;;;26.61;nan;99783.81;5046184;28;20067;-74
2022/08/30 13:04:38;;;;;;;;;;;;;;;26.73;nan;99787.28;5038462;28;20008;-73
2022/08/30 13:07:04;;;;;;;;;;;;;;;26.75;nan;99777.03;5042091;28;19916;-74
2022/08/30 13:09:32;;;;;;;;;;;;;;;26.71;nan;99763.16;5039923;28;20310;-73
2022/08/30 13:11:59;;;;;;;;;;;;;;;26.67;nan;99753.06;5042291;28;19965;-74
2022/08/30 13:14:33;;;;;;;;;;;;;;;26.65;nan;99741.66;5044807;28;20403;-74
2022/08/30 13:17:07;;;;;;;;;;;;;;;26.61;nan;99735.09;5036652;28;19916;-73
2022/08/30 13:19:34;;;;;;;;;;;;;;;26.58;nan;99730.16;5042969;28;19924;-73